sensor_id;sensor_type;location;lat;lon;timestamp;pressure;altitude;pressure_sealevel;temperature;humidity
2339;BME280;1180;51.438;6.978;2023-04-03T00:00:37;101619.06;;;6.13;81.16
2339;BME280;1180;51.438;6.978;2023-04-03T00:03:02;101618.06;;;6.21;81.13
2339;BME280;1180;51.438;6.978;2023-04-03T00:05:28;101618.06;;;6.21;80.81
2339;BME280;1180;51.438;6.978;2023-04-03T00:07:53;101620.75;;;6.15;81.26
2339;BME280;1180;51.438;6.978;2023-04-03T00:10:18;101617.50;;;6.07;81.41
2339;BME280;1180;51.438;6.978;2023-04-03T00:12:44;101615.69;;;6.12;81.57
2339;BME280;1180;51.438;6.978;2023-04-03T00:15:09;101614.84;;;6.13;81.10
2339;BME280;1180;51.438;6.978;2023-04-03T00:17:35;101616.38;;;6.20;81.14
2339;BME280;1180;51.438;6.978;2023-04-03T00:20:00;101618.44;;;6.01;81.42
2339;BME280;1180;51.438;6.978;2023-04-03T00:22:25;101609.25;;;5.91;81.88
2339;BME280;1180;51.438;6.978;2023-04-03T00:24:53;101614.19;;;6.02;82.19
2339;BME280;1180;51.438;6.978;2023-04-03T00:27:19;101613.16;;;6.12;82.00
2339;BME280;1180;51.438;6.978;2023-04-03T00:29:44;101611.63;;;6.00;81.53
2339;BME280;1180;51.438;6.978;2023-04-03T00:32:10;101618.25;;;6.14;81.74
2339;BME280;1180;51.438;6.978;2023-04-03T00:34:35;101615.56;;;6.20;81.11
2339;BME280;1180;51.438;6.978;2023-04-03T00:37:00;101616.53;;;6.13;80.69
2339;BME280;1180;51.438;6.978;2023-04-03T00:39:26;101616.34;;;6.24;80.70
2339;BME280;1180;51.438;6.978;2023-04-03T00:41:51;101618.00;;;6.25;80.28
2339;BME280;1180;51.438;6.978;2023-04-03T00:47:02;101612.03;;;6.27;79.98
2339;BME280;1180;51.438;6.978;2023-04-03T00:49:28;101613.69;;;6.30;79.38
2339;BME280;1180;51.438;6.978;2023-04-03T00:51:55;101613.78;;;6.24;79.95
2339;BME280;1180;51.438;6.978;2023-04-03T00:54:22;101613.13;;;6.14;79.89
2339;BME280;1180;51.438;6.978;2023-04-03T00:56:48;101612.34;;;6.09;79.99
2339;BME280;1180;51.438;6.978;2023-04-03T00:59:20;101613.16;;;6.12;80.07
2339;BME280;1180;51.438;6.978;2023-04-03T01:01:48;101617.25;;;6.19;80.09
2339;BME280;1180;51.438;6.978;2023-04-03T01:04:50;101619.75;;;6.22;79.79
2339;BME280;1180;51.438;6.978;2023-04-03T01:07:19;101616.25;;;6.30;79.45
2339;BME280;1180;51.438;6.978;2023-04-03T01:09:47;101615.66;;;6.15;79.30
2339;BME280;1180;51.438;6.978;2023-04-03T01:12:22;101619.34;;;5.96;80.07
2339;BME280;1180;51.438;6.978;2023-04-03T01:14:50;101620.81;;;6.11;79.96
2339;BME280;1180;51.438;6.978;2023-04-03T01:17:39;101625.09;;;6.10;79.92
2339;BME280;1180;51.438;6.978;2023-04-03T01:25:41;101624.41;;;5.99;79.36
2339;BME280;1180;51.438;6.978;2023-04-03T01:28:10;101626.25;;;5.90;78.98
2339;BME280;1180;51.438;6.978;2023-04-03T01:33:34;101623.38;;;6.11;78.30
2339;BME280;1180;51.438;6.978;2023-04-03T01:36:00;101628.47;;;6.11;77.32
2339;BME280;1180;51.438;6.978;2023-04-03T01:38:26;101628.31;;;6.18;77.24
2339;BME280;1180;51.438;6.978;2023-04-03T01:40:51;101630.13;;;6.13;75.90
2339;BME280;1180;51.438;6.978;2023-04-03T01:43:17;101636.09;;;6.11;76.27
2339;BME280;1180;51.438;6.978;2023-04-03T01:45:42;101636.78;;;6.20;76.04
2339;BME280;1180;51.438;6.978;2023-04-03T01:48:07;101631.88;;;6.10;76.13
2339;BME280;1180;51.438;6.978;2023-04-03T01:50:33;101637.13;;;6.02;75.35
2339;BME280;1180;51.438;6.978;2023-04-03T01:52:58;101633.53;;;6.14;75.49
2339;BME280;1180;51.438;6.978;2023-04-03T01:55:23;101640.97;;;6.25;75.46
2339;BME280;1180;51.438;6.978;2023-04-03T01:57:49;101634.59;;;6.02;74.98
2339;BME280;1180;51.438;6.978;2023-04-03T02:00:14;101645.41;;;6.13;75.42
2339;BME280;1180;51.438;6.978;2023-04-03T02:02:40;101641.13;;;6.17;75.15
2339;BME280;1180;51.438;6.978;2023-04-03T02:05:06;101644.75;;;6.03;75.37
2339;BME280;1180;51.438;6.978;2023-04-03T02:07:31;101645.41;;;6.13;75.29
2339;BME280;1180;51.438;6.978;2023-04-03T02:09:57;101647.84;;;6.21;75.03
2339;BME280;1180;51.438;6.978;2023-04-03T02:12:22;101646.28;;;6.12;75.16
2339;BME280;1180;51.438;6.978;2023-04-03T02:14:47;101646.16;;;6.18;74.72
2339;BME280;1180;51.438;6.978;2023-04-03T02:17:13;101643.63;;;6.18;74.91
2339;BME280;1180;51.438;6.978;2023-04-03T02:19:38;101646.97;;;6.20;74.99
2339;BME280;1180;51.438;6.978;2023-04-03T02:22:04;101652.38;;;6.05;74.87
2339;BME280;1180;51.438;6.978;2023-04-03T02:24:30;101651.59;;;6.00;75.00
2339;BME280;1180;51.438;6.978;2023-04-03T02:26:55;101651.78;;;5.87;75.76
2339;BME280;1180;51.438;6.978;2023-04-03T02:29:21;101649.84;;;6.03;75.56
2339;BME280;1180;51.438;6.978;2023-04-03T02:31:46;101654.09;;;6.03;75.09
2339;BME280;1180;51.438;6.978;2023-04-03T02:34:12;101648.31;;;5.91;75.02
2339;BME280;1180;51.438;6.978;2023-04-03T02:36:37;101650.78;;;5.98;75.33
2339;BME280;1180;51.438;6.978;2023-04-03T02:39:02;101647.53;;;5.88;74.86
2339;BME280;1180;51.438;6.978;2023-04-03T02:41:28;101651.00;;;5.84;74.64
2339;BME280;1180;51.438;6.978;2023-04-03T02:44:00;101652.00;;;5.73;75.47
2339;BME280;1180;51.438;6.978;2023-04-03T02:46:26;101654.53;;;5.75;74.57
2339;BME280;1180;51.438;6.978;2023-04-03T02:48:51;101650.22;;;5.78;75.11
2339;BME280;1180;51.438;6.978;2023-04-03T02:51:16;101657.09;;;5.75;75.36
2339;BME280;1180;51.438;6.978;2023-04-03T02:53:42;101655.31;;;5.80;76.11
2339;BME280;1180;51.438;6.978;2023-04-03T02:56:08;101660.34;;;5.83;76.10
2339;BME280;1180;51.438;6.978;2023-04-03T02:58:33;101655.19;;;5.88;74.44
2339;BME280;1180;51.438;6.978;2023-04-03T03:00:58;101660.97;;;5.98;74.61
2339;BME280;1180;51.438;6.978;2023-04-03T03:03:24;101659.34;;;5.92;74.23
2339;BME280;1180;51.438;6.978;2023-04-03T03:05:49;101659.69;;;5.70;75.23
2339;BME280;1180;51.438;6.978;2023-04-03T03:08:15;101662.34;;;5.66;75.02
2339;BME280;1180;51.438;6.978;2023-04-03T03:10:40;101660.44;;;5.77;74.74
2339;BME280;1180;51.438;6.978;2023-04-03T03:13:05;101657.84;;;5.80;74.80
2339;BME280;1180;51.438;6.978;2023-04-03T03:15:31;101664.88;;;5.66;74.97
2339;BME280;1180;51.438;6.978;2023-04-03T03:17:56;101664.94;;;5.59;75.36
2339;BME280;1180;51.438;6.978;2023-04-03T03:20:21;101674.16;;;5.68;75.21
2339;BME280;1180;51.438;6.978;2023-04-03T03:22:47;101670.97;;;5.55;74.70
2339;BME280;1180;51.438;6.978;2023-04-03T03:25:12;101674.47;;;5.46;75.12
2339;BME280;1180;51.438;6.978;2023-04-03T03:27:37;101669.47;;;5.42;75.86
2339;BME280;1180;51.438;6.978;2023-04-03T03:30:04;101671.94;;;5.48;75.52
2339;BME280;1180;51.438;6.978;2023-04-03T03:32:30;101672.63;;;5.56;75.49
2339;BME280;1180;51.438;6.978;2023-04-03T03:34:55;101676.06;;;5.55;75.25
2339;BME280;1180;51.438;6.978;2023-04-03T03:37:20;101665.09;;;5.50;75.19
2339;BME280;1180;51.438;6.978;2023-04-03T03:39:46;101674.44;;;5.51;74.76
2339;BME280;1180;51.438;6.978;2023-04-03T03:42:11;101677.03;;;5.46;75.15
2339;BME280;1180;51.438;6.978;2023-04-03T03:44:36;101669.31;;;5.53;74.90
2339;BME280;1180;51.438;6.978;2023-04-03T03:47:02;101665.16;;;5.45;74.56
2339;BME280;1180;51.438;6.978;2023-04-03T03:49:28;101672.19;;;5.29;75.10
2339;BME280;1180;51.438;6.978;2023-04-03T03:51:53;101666.94;;;5.40;75.21
2339;BME280;1180;51.438;6.978;2023-04-03T03:54:19;101668.56;;;5.46;74.38
2339;BME280;1180;51.438;6.978;2023-04-03T03:56:45;101662.59;;;5.47;74.79
2339;BME280;1180;51.438;6.978;2023-04-03T03:59:11;101655.88;;;5.43;74.31
2339;BME280;1180;51.438;6.978;2023-04-03T04:01:37;101667.09;;;5.29;74.69
2339;BME280;1180;51.438;6.978;2023-04-03T04:04:03;101665.22;;;5.42;74.94
2339;BME280;1180;51.438;6.978;2023-04-03T04:06:28;101665.69;;;5.10;75.20
2339;BME280;1180;51.438;6.978;2023-04-03T04:08:53;101674.94;;;5.15;75.39
2339;BME280;1180;51.438;6.978;2023-04-03T04:11:19;101675.66;;;5.24;74.83
2339;BME280;1180;51.438;6.978;2023-04-03T04:13:46;101677.22;;;5.35;74.68
2339;BME280;1180;51.438;6.978;2023-04-03T04:16:11;101679.63;;;5.43;73.98
2339;BME280;1180;51.438;6.978;2023-04-03T04:18:37;101675.38;;;4.80;76.17
2339;BME280;1180;51.438;6.978;2023-04-03T04:21:02;101684.34;;;5.09;76.01
2339;BME280;1180;51.438;6.978;2023-04-03T04:23:28;101675.81;;;5.13;75.22
2339;BME280;1180;51.438;6.978;2023-04-03T04:25:53;101679.22;;;5.12;75.49
2339;BME280;1180;51.438;6.978;2023-04-03T04:28:18;101683.41;;;5.16;75.43
2339;BME280;1180;51.438;6.978;2023-04-03T04:30:44;101682.44;;;5.25;75.03
2339;BME280;1180;51.438;6.978;2023-04-03T04:33:10;101685.09;;;5.17;74.43
2339;BME280;1180;51.438;6.978;2023-04-03T04:35:35;101690.31;;;5.06;75.11
2339;BME280;1180;51.438;6.978;2023-04-03T04:38:01;101690.22;;;5.15;75.05
2339;BME280;1180;51.438;6.978;2023-04-03T04:40:26;101691.97;;;5.09;75.43
2339;BME280;1180;51.438;6.978;2023-04-03T04:42:52;101700.44;;;5.11;75.31
2339;BME280;1180;51.438;6.978;2023-04-03T04:45:17;101696.19;;;5.11;75.41
2339;BME280;1180;51.438;6.978;2023-04-03T04:47:43;101701.34;;;5.06;75.40
2339;BME280;1180;51.438;6.978;2023-04-03T04:50:09;101705.78;;;4.89;75.78
2339;BME280;1180;51.438;6.978;2023-04-03T04:52:34;101709.97;;;4.93;75.82
2339;BME280;1180;51.438;6.978;2023-04-03T04:55:00;101711.13;;;4.67;76.88
2339;BME280;1180;51.438;6.978;2023-04-03T04:57:25;101714.53;;;4.63;76.40
2339;BME280;1180;51.438;6.978;2023-04-03T04:59:50;101716.28;;;4.58;77.03
2339;BME280;1180;51.438;6.978;2023-04-03T05:02:16;101718.56;;;4.84;77.13
2339;BME280;1180;51.438;6.978;2023-04-03T05:04:41;101721.16;;;4.81;76.20
2339;BME280;1180;51.438;6.978;2023-04-03T05:07:07;101728.69;;;4.89;75.76
2339;BME280;1180;51.438;6.978;2023-04-03T05:09:32;101724.47;;;4.86;75.89
2339;BME280;1180;51.438;6.978;2023-04-03T05:11:58;101725.31;;;4.87;75.61
2339;BME280;1180;51.438;6.978;2023-04-03T05:14:23;101724.38;;;4.94;75.96
2339;BME280;1180;51.438;6.978;2023-04-03T05:16:48;101732.13;;;4.86;75.96
2339;BME280;1180;51.438;6.978;2023-04-03T05:19:17;101737.16;;;4.88;75.72
2339;BME280;1180;51.438;6.978;2023-04-03T05:21:43;101736.28;;;4.94;75.56
2339;BME280;1180;51.438;6.978;2023-04-03T05:24:08;101736.31;;;4.89;75.52
2339;BME280;1180;51.438;6.978;2023-04-03T05:26:34;101734.81;;;4.72;76.69
2339;BME280;1180;51.438;6.978;2023-04-03T05:28:59;101743.22;;;4.76;75.81
2339;BME280;1180;51.438;6.978;2023-04-03T05:31:25;101738.97;;;4.80;76.13
2339;BME280;1180;51.438;6.978;2023-04-03T05:33:50;101736.59;;;4.62;76.84
2339;BME280;1180;51.438;6.978;2023-04-03T05:36:15;101746.78;;;4.62;77.15
2339;BME280;1180;51.438;6.978;2023-04-03T05:38:41;101748.47;;;4.63;76.42
2339;BME280;1180;51.438;6.978;2023-04-03T05:41:07;101752.72;;;4.60;76.75
2339;BME280;1180;51.438;6.978;2023-04-03T05:43:33;101756.25;;;4.48;77.27
2339;BME280;1180;51.438;6.978;2023-04-03T05:45:59;101749.56;;;4.36;77.98
2339;BME280;1180;51.438;6.978;2023-04-03T05:48:25;101761.47;;;4.34;77.25
2339;BME280;1180;51.438;6.978;2023-04-03T05:50:51;101763.97;;;4.36;77.33
2339;BME280;1180;51.438;6.978;2023-04-03T05:53:22;101763.16;;;4.30;77.64
2339;BME280;1180;51.438;6.978;2023-04-03T05:55:49;101763.28;;;4.16;79.25
2339;BME280;1180;51.438;6.978;2023-04-03T05:58:14;101769.75;;;4.52;78.67
2339;BME280;1180;51.438;6.978;2023-04-03T06:00:39;101773.16;;;4.51;78.11
2339;BME280;1180;51.438;6.978;2023-04-03T06:03:06;101780.88;;;4.41;77.27
2339;BME280;1180;51.438;6.978;2023-04-03T06:05:32;101784.25;;;4.43;77.53
2339;BME280;1180;51.438;6.978;2023-04-03T06:07:57;101784.28;;;4.40;77.44
2339;BME280;1180;51.438;6.978;2023-04-03T06:10:23;101773.38;;;4.27;78.21
2339;BME280;1180;51.438;6.978;2023-04-03T06:12:48;101784.25;;;4.42;77.41
2339;BME280;1180;51.438;6.978;2023-04-03T06:15:13;101778.47;;;4.24;77.66
2339;BME280;1180;51.438;6.978;2023-04-03T06:17:39;101777.53;;;4.34;78.44
2339;BME280;1180;51.438;6.978;2023-04-03T06:20:05;101780.06;;;4.34;77.60
2339;BME280;1180;51.438;6.978;2023-04-03T06:22:31;101782.50;;;4.47;78.38
2339;BME280;1180;51.438;6.978;2023-04-03T06:24:57;101781.69;;;4.42;77.59
2339;BME280;1180;51.438;6.978;2023-04-03T06:27:22;101773.38;;;4.24;77.87
2339;BME280;1180;51.438;6.978;2023-04-03T06:29:48;101782.75;;;4.17;78.58
2339;BME280;1180;51.438;6.978;2023-04-03T06:32:15;101776.88;;;4.12;79.43
2339;BME280;1180;51.438;6.978;2023-04-03T06:34:41;101776.84;;;4.15;78.65
2339;BME280;1180;51.438;6.978;2023-04-03T06:37:10;101773.44;;;4.18;79.20
2339;BME280;1180;51.438;6.978;2023-04-03T06:39:36;101773.56;;;3.99;79.42
2339;BME280;1180;51.438;6.978;2023-04-03T06:42:01;101770.84;;;4.23;80.06
2339;BME280;1180;51.438;6.978;2023-04-03T06:44:26;101769.91;;;4.34;79.11
2339;BME280;1180;51.438;6.978;2023-04-03T06:46:52;101777.41;;;4.48;78.23
2339;BME280;1180;51.438;6.978;2023-04-03T06:49:19;101779.13;;;4.46;78.04
2339;BME280;1180;51.438;6.978;2023-04-03T06:51:44;101784.88;;;4.66;77.80
2339;BME280;1180;51.438;6.978;2023-04-03T06:54:10;101784.03;;;4.68;76.54
2339;BME280;1180;51.438;6.978;2023-04-03T06:56:36;101777.34;;;4.55;77.43
2339;BME280;1180;51.438;6.978;2023-04-03T06:59:01;101785.72;;;4.68;76.12
2339;BME280;1180;51.438;6.978;2023-04-03T07:01:28;101786.47;;;4.77;75.86
2339;BME280;1180;51.438;6.978;2023-04-03T07:03:54;101791.41;;;4.90;75.93
2339;BME280;1180;51.438;6.978;2023-04-03T07:06:20;101783.19;;;4.66;75.94
2339;BME280;1180;51.438;6.978;2023-04-03T07:08:45;101795.19;;;4.53;76.03
2339;BME280;1180;51.438;6.978;2023-04-03T07:11:12;101790.97;;;4.47;75.75
2339;BME280;1180;51.438;6.978;2023-04-03T07:13:38;101803.41;;;4.77;76.17
2339;BME280;1180;51.438;6.978;2023-04-03T07:16:05;101804.97;;;4.92;74.12
2339;BME280;1180;51.438;6.978;2023-04-03T07:18:32;101807.59;;;4.84;75.32
2339;BME280;1180;51.438;6.978;2023-04-03T07:20:57;101807.38;;;5.06;73.73
2339;BME280;1180;51.438;6.978;2023-04-03T07:23:23;101816.72;;;5.04;72.98
2339;BME280;1180;51.438;6.978;2023-04-03T07:25:51;101820.19;;;4.95;72.25
2339;BME280;1180;51.438;6.978;2023-04-03T07:28:18;101817.50;;;5.09;73.00
2339;BME280;1180;51.438;6.978;2023-04-03T07:30:48;101811.44;;;5.21;71.88
2339;BME280;1180;51.438;6.978;2023-04-03T07:33:16;101813.22;;;5.14;72.03
2339;BME280;1180;51.438;6.978;2023-04-03T07:35:43;101827.84;;;4.94;71.73
2339;BME280;1180;51.438;6.978;2023-04-03T07:38:09;101817.56;;;5.03;71.81
2339;BME280;1180;51.438;6.978;2023-04-03T07:40:36;101816.69;;;5.09;72.28
2339;BME280;1180;51.438;6.978;2023-04-03T07:43:02;101823.44;;;5.10;71.12
2339;BME280;1180;51.438;6.978;2023-04-03T07:45:28;101817.38;;;5.20;70.58
2339;BME280;1180;51.438;6.978;2023-04-03T07:47:54;101812.22;;;5.26;69.98
2339;BME280;1180;51.438;6.978;2023-04-03T07:50:20;101821.47;;;5.35;70.68
2339;BME280;1180;51.438;6.978;2023-04-03T07:52:47;101815.38;;;5.48;69.19
2339;BME280;1180;51.438;6.978;2023-04-03T07:55:16;101819.53;;;5.56;68.35
2339;BME280;1180;51.438;6.978;2023-04-03T07:57:42;101823.97;;;5.40;69.09
2339;BME280;1180;51.438;6.978;2023-04-03T08:00:09;101824.88;;;5.35;69.94
2339;BME280;1180;51.438;6.978;2023-04-03T08:02:35;101815.66;;;5.24;70.25
2339;BME280;1180;51.438;6.978;2023-04-03T08:05:01;101816.16;;;5.52;69.80
2339;BME280;1180;51.438;6.978;2023-04-03T08:07:26;101820.25;;;5.62;68.96
2339;BME280;1180;51.438;6.978;2023-04-03T08:09:52;101808.91;;;5.87;68.08
2339;BME280;1180;51.438;6.978;2023-04-03T08:12:18;101817.28;;;5.93;66.69
2339;BME280;1180;51.438;6.978;2023-04-03T08:14:44;101815.66;;;5.89;66.91
2339;BME280;1180;51.438;6.978;2023-04-03T08:17:10;101817.75;;;5.59;65.82
2339;BME280;1180;51.438;6.978;2023-04-03T08:19:39;101817.19;;;5.37;68.04
2339;BME280;1180;51.438;6.978;2023-04-03T08:22:05;101815.38;;;5.48;66.38
2339;BME280;1180;51.438;6.978;2023-04-03T08:24:32;101819.13;;;5.85;65.98
2339;BME280;1180;51.438;6.978;2023-04-03T08:26:58;101821.72;;;5.84;63.84
2339;BME280;1180;51.438;6.978;2023-04-03T08:29:24;101813.88;;;5.98;62.54
2339;BME280;1180;51.438;6.978;2023-04-03T08:31:50;101819.03;;;5.93;60.65
2339;BME280;1180;51.438;6.978;2023-04-03T08:34:16;101819.91;;;5.90;60.73
2339;BME280;1180;51.438;6.978;2023-04-03T08:36:42;101822.31;;;6.00;61.40
2339;BME280;1180;51.438;6.978;2023-04-03T08:39:08;101829.03;;;6.07;60.68
2339;BME280;1180;51.438;6.978;2023-04-03T08:41:35;101820.97;;;6.35;59.29
2339;BME280;1180;51.438;6.978;2023-04-03T08:49:57;101832.03;;;6.34;59.82
2339;BME280;1180;51.438;6.978;2023-04-03T08:57:53;101824.50;;;6.26;58.16
2339;BME280;1180;51.438;6.978;2023-04-03T09:00:26;101828.09;;;6.14;58.52
2339;BME280;1180;51.438;6.978;2023-04-03T09:02:55;101829.03;;;6.07;57.20
2339;BME280;1180;51.438;6.978;2023-04-03T09:08:18;101816.16;;;6.16;58.58
2339;BME280;1180;51.438;6.978;2023-04-03T09:10:47;101820.75;;;6.49;57.54
2339;BME280;1180;51.438;6.978;2023-04-03T09:13:23;101818.03;;;6.57;55.39
2339;BME280;1180;51.438;6.978;2023-04-03T09:15:51;101822.91;;;6.71;53.47
2339;BME280;1180;51.438;6.978;2023-04-03T09:18:27;101814.56;;;6.62;52.32
2339;BME280;1180;51.438;6.978;2023-04-03T09:21:08;101830.63;;;6.69;51.50
2339;BME280;1180;51.438;6.978;2023-04-03T09:23:54;101831.78;;;6.49;51.22
2339;BME280;1180;51.438;6.978;2023-04-03T09:26:28;101835.41;;;6.34;51.31
2339;BME280;1180;51.438;6.978;2023-04-03T09:28:57;101835.16;;;6.52;51.84
2339;BME280;1180;51.438;6.978;2023-04-03T09:31:35;101839.78;;;6.79;51.66
2339;BME280;1180;51.438;6.978;2023-04-03T09:34:37;101842.31;;;6.81;49.12
2339;BME280;1180;51.438;6.978;2023-04-03T09:37:04;101826.38;;;6.68;47.72
2339;BME280;1180;51.438;6.978;2023-04-03T09:39:53;101828.34;;;7.01;47.28
2339;BME280;1180;51.438;6.978;2023-04-03T09:42:24;101825.09;;;6.91;46.78
2339;BME280;1180;51.438;6.978;2023-04-03T09:44:57;101824.22;;;6.92;43.59
2339;BME280;1180;51.438;6.978;2023-04-03T09:47:28;101826.94;;;7.30;56.30
2339;BME280;1180;51.438;6.978;2023-04-03T09:50:21;101814.97;;;7.73;44.44
2339;BME280;1180;51.438;6.978;2023-04-03T09:52:49;101818.19;;;7.42;42.88
2339;BME280;1180;51.438;6.978;2023-04-03T09:55:27;101812.94;;;7.48;43.27
2339;BME280;1180;51.438;6.978;2023-04-03T09:58:03;101822.56;;;7.36;43.03
2339;BME280;1180;51.438;6.978;2023-04-03T10:00:39;101815.06;;;7.27;43.37
2339;BME280;1180;51.438;6.978;2023-04-03T10:03:08;101822.69;;;7.30;43.25
2339;BME280;1180;51.438;6.978;2023-04-03T10:05:48;101818.03;;;7.48;42.77
2339;BME280;1180;51.438;6.978;2023-04-03T10:10:46;101819.66;;;7.54;43.12
2339;BME280;1180;51.438;6.978;2023-04-03T10:13:20;101812.28;;;7.79;43.00
2339;BME280;1180;51.438;6.978;2023-04-03T10:16:07;101818.91;;;7.88;43.35
2339;BME280;1180;51.438;6.978;2023-04-03T10:21:10;101810.59;;;7.78;43.93
2339;BME280;1180;51.438;6.978;2023-04-03T10:23:44;101812.28;;;7.77;43.02
2339;BME280;1180;51.438;6.978;2023-04-03T10:26:32;101805.41;;;7.81;44.32
2339;BME280;1180;51.438;6.978;2023-04-03T10:29:25;101811.97;;;7.93;44.07
2339;BME280;1180;51.438;6.978;2023-04-03T10:32:15;101810.63;;;8.14;43.21
2339;BME280;1180;51.438;6.978;2023-04-03T10:34:53;101806.88;;;8.28;44.18
2339;BME280;1180;51.438;6.978;2023-04-03T10:37:24;101802.78;;;8.22;44.07
2339;BME280;1180;51.438;6.978;2023-04-03T10:40:01;101806.53;;;8.42;44.81
2339;BME280;1180;51.438;6.978;2023-04-03T10:53:34;101783.66;;;8.37;44.19
2339;BME280;1180;51.438;6.978;2023-04-03T10:58:56;101795.25;;;8.52;44.88
2339;BME280;1180;51.438;6.978;2023-04-03T11:01:39;101777.59;;;8.39;44.82
2339;BME280;1180;51.438;6.978;2023-04-03T11:04:10;101778.47;;;8.73;45.35
2339;BME280;1180;51.438;6.978;2023-04-03T11:06:47;101776.31;;;8.58;44.96
2339;BME280;1180;51.438;6.978;2023-04-03T11:11:42;101773.47;;;8.69;45.47
2339;BME280;1180;51.438;6.978;2023-04-03T11:14:33;101766.78;;;8.96;44.39
2339;BME280;1180;51.438;6.978;2023-04-03T11:17:19;101749.47;;;8.73;44.87
2339;BME280;1180;51.438;6.978;2023-04-03T11:23:06;101755.22;;;9.11;45.02
2339;BME280;1180;51.438;6.978;2023-04-03T11:25:34;101751.34;;;8.99;44.91
2339;BME280;1180;51.438;6.978;2023-04-03T11:28:05;101751.44;;;9.24;45.00
2339;BME280;1180;51.438;6.978;2023-04-03T11:34:08;101740.81;;;9.08;44.88
2339;BME280;1180;51.438;6.978;2023-04-03T11:36:47;101755.09;;;9.17;44.53
2339;BME280;1180;51.438;6.978;2023-04-03T11:39:34;101750.59;;;9.24;43.44
2339;BME280;1180;51.438;6.978;2023-04-03T12:19:13;101724.44;;;9.43;41.75
2339;BME280;1180;51.438;6.978;2023-04-03T12:27:03;101714.25;;;9.68;42.45
2339;BME280;1180;51.438;6.978;2023-04-03T12:29:34;101716.09;;;9.64;41.57
2339;BME280;1180;51.438;6.978;2023-04-03T12:43:35;101694.66;;;9.92;40.76
2339;BME280;1180;51.438;6.978;2023-04-03T12:46:09;101679.34;;;10.16;41.34
2339;BME280;1180;51.438;6.978;2023-04-03T12:48:47;101696.59;;;10.36;41.77
2339;BME280;1180;51.438;6.978;2023-04-03T12:51:15;101685.28;;;9.91;40.50
2339;BME280;1180;51.438;6.978;2023-04-03T12:53:44;101680.47;;;10.07;40.63
2339;BME280;1180;51.438;6.978;2023-04-03T12:56:31;101672.00;;;10.31;41.14
2339;BME280;1180;51.438;6.978;2023-04-03T12:59:17;101673.94;;;10.49;40.48
2339;BME280;1180;51.438;6.978;2023-04-03T13:01:54;101681.25;;;10.60;41.04
2339;BME280;1180;51.438;6.978;2023-04-03T13:04:21;101668.19;;;10.66;40.06
2339;BME280;1180;51.438;6.978;2023-04-03T13:06:46;101681.03;;;10.66;39.97
2339;BME280;1180;51.438;6.978;2023-04-03T13:09:31;101656.53;;;10.58;40.40
2339;BME280;1180;51.438;6.978;2023-04-03T13:12:17;101666.28;;;9.99;39.60
2339;BME280;1180;51.438;6.978;2023-04-03T13:14:54;101681.34;;;10.08;40.62
2339;BME280;1180;51.438;6.978;2023-04-03T13:17:24;101667.91;;;10.50;40.47
2339;BME280;1180;51.438;6.978;2023-04-03T13:19:51;101673.50;;;10.62;39.64
2339;BME280;1180;51.438;6.978;2023-04-03T13:22:27;101668.75;;;10.25;39.38
2339;BME280;1180;51.438;6.978;2023-04-03T13:24:55;101671.59;;;10.18;39.96
2339;BME280;1180;51.438;6.978;2023-04-03T13:27:22;101665.25;;;10.28;39.81
2339;BME280;1180;51.438;6.978;2023-04-03T13:29:57;101669.28;;;10.10;40.54
2339;BME280;1180;51.438;6.978;2023-04-03T13:32:25;101665.09;;;10.07;40.92
2339;BME280;1180;51.438;6.978;2023-04-03T13:34:52;101660.13;;;10.28;40.86
2339;BME280;1180;51.438;6.978;2023-04-03T13:37:32;101643.00;;;10.29;40.38
2339;BME280;1180;51.438;6.978;2023-04-03T13:42:36;101656.09;;;10.46;41.17
2339;BME280;1180;51.438;6.978;2023-04-03T13:47:42;101657.84;;;10.46;40.06
2339;BME280;1180;51.438;6.978;2023-04-03T13:52:46;101646.88;;;10.64;40.50
2339;BME280;1180;51.438;6.978;2023-04-03T13:58:01;101645.28;;;10.62;40.30
2339;BME280;1180;51.438;6.978;2023-04-03T14:00:37;101636.84;;;10.58;40.77
2339;BME280;1180;51.438;6.978;2023-04-03T14:05:59;101642.88;;;10.57;40.80
2339;BME280;1180;51.438;6.978;2023-04-03T14:08:26;101636.25;;;10.74;40.30
2339;BME280;1180;51.438;6.978;2023-04-03T14:10:52;101628.63;;;10.72;40.05
2339;BME280;1180;51.438;6.978;2023-04-03T14:13:19;101621.84;;;10.69;40.36
2339;BME280;1180;51.438;6.978;2023-04-03T14:15:46;101627.50;;;11.02;39.93
2339;BME280;1180;51.438;6.978;2023-04-03T14:18:15;101625.81;;;11.01;40.31
2339;BME280;1180;51.438;6.978;2023-04-03T14:20:42;101615.53;;;11.01;39.82
2339;BME280;1180;51.438;6.978;2023-04-03T14:23:08;101621.25;;;11.30;39.95
2339;BME280;1180;51.438;6.978;2023-04-03T14:25:34;101626.94;;;11.38;40.96
2339;BME280;1180;51.438;6.978;2023-04-03T14:28:00;101609.03;;;11.14;39.23
2339;BME280;1180;51.438;6.978;2023-04-03T14:30:33;101615.09;;;11.13;40.50
2339;BME280;1180;51.438;6.978;2023-04-03T14:32:59;101614.47;;;11.29;39.60
2339;BME280;1180;51.438;6.978;2023-04-03T14:35:25;101602.53;;;11.05;39.29
2339;BME280;1180;51.438;6.978;2023-04-03T14:37:52;101601.25;;;11.16;38.90
2339;BME280;1180;51.438;6.978;2023-04-03T14:40:22;101605.72;;;11.12;39.49
2339;BME280;1180;51.438;6.978;2023-04-03T14:42:48;101601.78;;;11.24;39.94
2339;BME280;1180;51.438;6.978;2023-04-03T14:45:16;101602.47;;;11.29;40.73
2339;BME280;1180;51.438;6.978;2023-04-03T14:47:47;101597.31;;;11.50;39.71
2339;BME280;1180;51.438;6.978;2023-04-03T14:50:20;101596.81;;;11.41;39.74
2339;BME280;1180;51.438;6.978;2023-04-03T14:52:50;101592.59;;;11.61;39.81
2339;BME280;1180;51.438;6.978;2023-04-03T14:55:19;101590.25;;;11.76;39.63
2339;BME280;1180;51.438;6.978;2023-04-03T14:57:45;101593.94;;;11.89;39.16
2339;BME280;1180;51.438;6.978;2023-04-03T15:00:16;101589.25;;;12.20;39.29
2339;BME280;1180;51.438;6.978;2023-04-03T15:02:42;101578.19;;;12.37;38.75
2339;BME280;1180;51.438;6.978;2023-04-03T15:05:09;101593.41;;;12.22;38.67
2339;BME280;1180;51.438;6.978;2023-04-03T15:07:38;101581.53;;;12.39;37.92
2339;BME280;1180;51.438;6.978;2023-04-03T15:10:19;101600.28;;;12.03;38.66
2339;BME280;1180;51.438;6.978;2023-04-03T15:12:47;101588.31;;;12.02;37.85
2339;BME280;1180;51.438;6.978;2023-04-03T15:15:14;101584.84;;;11.82;38.35
2339;BME280;1180;51.438;6.978;2023-04-03T15:17:42;101587.16;;;12.09;38.48
2339;BME280;1180;51.438;6.978;2023-04-03T15:20:19;101589.38;;;12.74;37.58
2339;BME280;1180;51.438;6.978;2023-04-03T15:22:45;101580.66;;;13.31;37.27
2339;BME280;1180;51.438;6.978;2023-04-03T15:25:11;101587.53;;;13.31;37.13
2339;BME280;1180;51.438;6.978;2023-04-03T15:27:37;101584.88;;;12.97;36.65